Time;durP1;ratioP1;P1;durP2;ratioP2;P2;SDS_P1;SDS_P2;PMS_P1;PMS_P2;Temp;Humidity;BMP_temperature;BMP_pressure;BME280_temperature;BME280_humidity;BME280_pressure;Samples;Min_cycle;Max_cycle;Signal;HPM_P1;HPM_P2
2023/09/15 00:00:28;;;;;;;17.43;14.30;;;17.50;99.90;;;;;;5079220;28;20466;-86
2023/09/15 00:02:56;;;;;;;6.10;5.50;;;17.50;99.90;;;;;;5079592;28;20496;-86
2023/09/15 00:05:26;;;;;;;4.20;3.80;;;17.40;99.90;;;;;;5079484;28;20534;-84
2023/09/15 00:07:58;;;;;;;4.27;3.87;;;17.40;99.90;;;;;;5084823;28;20513;-85
2023/09/15 00:10:26;;;;;;;4.07;3.57;;;17.40;99.90;;;;;;5076985;28;20565;-87
2023/09/15 00:12:56;;;;;;;10.33;7.33;;;17.40;99.90;;;;;;5080844;28;20459;-84
2023/09/15 00:15:56;;;;;;;5.77;4.20;;;17.40;99.90;;;;;;5082635;28;20478;-83
2023/09/15 00:18:25;;;;;;;6.27;4.47;;;17.40;99.90;;;;;;5059461;28;20466;-84
2023/09/15 00:20:54;;;;;;;4.03;3.63;;;17.40;99.90;;;;;;5072381;28;20463;-83
2023/09/15 00:23:23;;;;;;;5.60;4.27;;;17.40;99.90;;;;;;5070640;28;20541;-83
2023/09/15 00:25:54;;;;;;;3.67;3.37;;;17.30;99.90;;;;;;5059718;28;20482;-83
2023/09/15 00:28:22;;;;;;;5.07;3.57;;;17.30;99.90;;;;;;5050072;28;20463;-83
2023/09/15 00:30:51;;;;;;;3.80;3.43;;;17.30;99.90;;;;;;5060773;28;20463;-86
2023/09/15 00:33:19;;;;;;;3.53;3.23;;;17.30;99.90;;;;;;5059546;28;20478;-87
2023/09/15 00:35:47;;;;;;;5.07;4.20;;;17.20;99.90;;;;;;5061660;28;20466;-87
2023/09/15 00:38:17;;;;;;;4.23;3.27;;;17.20;99.90;;;;;;5062456;28;20498;-86
2023/09/15 00:40:50;;;;;;;4.40;3.67;;;17.20;99.90;;;;;;5066463;28;20473;-87
2023/09/15 00:43:24;;;;;;;4.80;3.87;;;17.20;99.90;;;;;;5053971;28;20477;-82
2023/09/15 00:45:53;;;;;;;4.00;3.20;;;17.20;99.90;;;;;;5066543;28;20500;-83
2023/09/15 00:48:22;;;;;;;4.80;3.50;;;17.20;99.90;;;;;;5065562;28;20469;-86
2023/09/15 00:50:53;;;;;;;3.80;3.13;;;17.30;99.90;;;;;;5083081;28;20492;-83
2023/09/15 00:53:21;;;;;;;3.43;3.13;;;17.30;99.90;;;;;;5069576;28;20519;-82
2023/09/15 00:55:51;;;;;;;3.57;3.03;;;17.30;99.90;;;;;;5077064;28;20936;-82
2023/09/15 00:58:21;;;;;;;5.13;4.10;;;17.20;99.90;;;;;;5079618;28;20462;-82
2023/09/15 01:00:49;;;;;;;4.77;3.73;;;17.30;99.90;;;;;;5081664;28;20562;-82
2023/09/15 01:03:21;;;;;;;4.87;4.37;;;17.30;99.90;;;;;;5081238;28;20903;-83
2023/09/15 01:05:49;;;;;;;3.83;3.50;;;17.30;99.90;;;;;;5076894;28;20565;-83
2023/09/15 01:08:22;;;;;;;3.30;3.10;;;17.30;99.90;;;;;;5065470;28;20466;-83
2023/09/15 01:10:50;;;;;;;4.50;3.80;;;17.30;99.90;;;;;;5064037;28;20548;-83
2023/09/15 01:13:19;;;;;;;6.33;3.67;;;17.30;99.90;;;;;;5065797;28;20807;-87
2023/09/15 01:15:52;;;;;;;6.70;5.30;;;17.30;99.90;;;;;;5044574;28;20958;-84
2023/09/15 01:18:29;;;;;;;5.07;4.00;;;17.30;99.90;;;;;;5060645;28;20490;-88
2023/09/15 01:21:20;;;;;;;7.17;5.80;;;17.30;99.90;;;;;;5074801;28;20469;-83
2023/09/15 01:24:30;;;;;;;5.10;3.57;;;17.30;99.90;;;;;;5075009;28;20543;-89
2023/09/15 01:27:14;;;;;;;5.60;4.30;;;17.20;99.90;;;;;;5067706;28;20466;-88
2023/09/15 01:29:48;;;;;;;5.30;3.33;;;17.20;99.90;;;;;;5073533;28;20547;-82
2023/09/15 01:32:19;;;;;;;4.50;4.10;;;17.10;99.90;;;;;;5076017;28;20473;-88
2023/09/15 01:34:51;;;;;;;4.47;4.07;;;17.10;99.90;;;;;;5075114;28;20474;-88
2023/09/15 01:37:19;;;;;;;4.17;3.53;;;17.10;99.90;;;;;;5068349;28;20498;-82
2023/09/15 01:39:46;;;;;;;4.33;3.93;;;17.10;99.90;;;;;;5075684;28;20466;-84
2023/09/15 01:42:13;;;;;;;3.53;3.23;;;17.00;99.90;;;;;;5075460;28;20466;-83
2023/09/15 01:44:42;;;;;;;5.53;3.30;;;17.00;99.90;;;;;;5074542;28;20508;-82
2023/09/15 01:47:15;;;;;;;5.93;4.20;;;17.00;99.90;;;;;;5074611;28;20455;-88
2023/09/15 01:49:43;;;;;;;4.10;3.73;;;17.00;99.90;;;;;;5074430;28;20907;-87
2023/09/15 01:52:10;;;;;;;106.27;69.93;;;17.00;99.90;;;;;;5074681;28;20531;-83
2023/09/15 01:54:37;;;;;;;19.47;17.53;;;16.90;99.90;;;;;;5075151;28;20493;-83
2023/09/15 01:57:08;;;;;;;3.77;3.43;;;17.00;99.90;;;;;;5074420;28;20474;-83
2023/09/15 01:59:35;;;;;;;4.50;3.60;;;16.90;99.90;;;;;;5075227;28;20485;-83
2023/09/15 02:02:02;;;;;;;4.03;3.70;;;16.90;99.90;;;;;;5074571;28;20497;-87
2023/09/15 02:04:31;;;;;;;6.47;4.43;;;16.90;99.90;;;;;;5074888;28;20475;-83
2023/09/15 02:07:08;;;;;;;4.90;3.60;;;16.90;99.90;;;;;;5074057;28;20475;-83
2023/09/15 02:09:35;;;;;;;4.00;3.60;;;16.90;99.90;;;;;;5075248;28;20944;-87
2023/09/15 02:12:02;;;;;;;3.87;3.40;;;16.90;99.90;;;;;;5074800;28;20527;-83
2023/09/15 02:14:29;;;;;;;5.40;3.90;;;16.90;99.90;;;;;;5064502;28;20512;-87
2023/09/15 02:16:59;;;;;;;4.43;3.53;;;16.90;99.90;;;;;;5072559;28;20475;-83
2023/09/15 02:19:27;;;;;;;6.33;4.50;;;16.90;99.90;;;;;;5074440;28;20481;-88
2023/09/15 02:21:57;;;;;;;3.70;3.40;;;16.90;99.90;;;;;;5073707;28;20537;-87
2023/09/15 02:24:24;;;;;;;4.97;3.47;;;16.90;99.90;;;;;;5074986;28;20448;-87
2023/09/15 02:26:51;;;;;;;3.90;3.50;;;16.90;99.90;;;;;;5074862;28;20454;-88
2023/09/15 02:29:20;;;;;;;3.23;2.90;;;17.00;99.90;;;;;;5073992;28;20959;-83
2023/09/15 02:31:51;;;;;;;4.37;3.93;;;16.90;99.90;;;;;;5073218;28;20458;-84
2023/09/15 02:34:18;;;;;;;3.93;3.53;;;16.90;99.90;;;;;;5073717;28;20494;-83
2023/09/15 02:36:45;;;;;;;4.20;3.77;;;16.90;99.90;;;;;;5073540;28;20785;-88
2023/09/15 02:39:13;;;;;;;3.87;3.57;;;16.90;99.90;;;;;;5074963;28;20470;-83
2023/09/15 02:41:43;;;;;;;4.57;3.73;;;16.90;99.90;;;;;;5073708;28;20466;-88
2023/09/15 02:44:10;;;;;;;5.20;4.53;;;16.90;99.90;;;;;;5076901;28;20819;-88
2023/09/15 02:46:38;;;;;;;4.53;3.67;;;16.90;99.90;;;;;;5084021;28;20477;-88
2023/09/15 02:49:05;;;;;;;4.37;3.97;;;16.90;99.90;;;;;;5087165;28;20459;-83
2023/09/15 02:51:37;;;;;;;4.33;3.93;;;16.90;99.90;;;;;;5072939;28;20478;-84
2023/09/15 02:54:30;;;;;;;4.50;4.10;;;16.90;99.90;;;;;;5073654;28;20555;-84
2023/09/15 02:56:57;;;;;;;4.77;4.27;;;16.90;99.90;;;;;;5072435;28;20512;-83
2023/09/15 02:59:27;;;;;;;4.80;4.40;;;16.90;99.90;;;;;;5084118;28;20466;-88
2023/09/15 03:01:54;;;;;;;4.83;4.33;;;16.80;99.90;;;;;;5077585;28;20858;-83
2023/09/15 03:04:24;;;;;;;4.33;3.93;;;16.80;99.90;;;;;;5073073;28;20491;-83
2023/09/15 03:06:51;;;;;;;4.03;3.63;;;16.80;99.90;;;;;;5075454;28;20462;-84
2023/09/15 03:09:19;;;;;;;4.07;3.57;;;16.80;99.90;;;;;;5074317;28;20855;-88
2023/09/15 03:11:47;;;;;;;5.37;3.60;;;16.80;99.90;;;;;;5077648;28;20473;-84
2023/09/15 03:14:16;;;;;;;4.87;3.97;;;16.70;99.90;;;;;;5073218;28;20552;-84
2023/09/15 03:16:43;;;;;;;4.90;4.40;;;16.70;99.90;;;;;;5072787;28;20502;-83
2023/09/15 03:19:10;;;;;;;4.77;4.07;;;16.70;99.90;;;;;;5072817;28;20490;-83
2023/09/15 03:21:38;;;;;;;7.33;4.10;;;16.70;99.90;;;;;;5073561;28;20477;-88
2023/09/15 03:24:06;;;;;;;7.03;5.17;;;16.70;99.90;;;;;;5074152;28;20490;-83
2023/09/15 03:26:36;;;;;;;4.73;3.80;;;16.70;99.90;;;;;;5059258;28;20489;-88
2023/09/15 03:29:18;;;;;;;4.70;4.30;;;16.80;99.90;;;;;;5072581;28;20470;-88
2023/09/15 03:31:45;;;;;;;3.77;3.47;;;16.80;99.90;;;;;;5072859;28;20466;-83
2023/09/15 03:34:12;;;;;;;6.60;3.80;;;16.70;99.90;;;;;;5075050;28;20458;-88
2023/09/15 03:36:39;;;;;;;4.73;4.33;;;16.70;99.90;;;;;;5075314;28;20488;-84
2023/09/15 03:39:14;;;;;;;5.07;4.10;;;16.70;99.90;;;;;;5073186;28;20465;-88
2023/09/15 03:41:55;;;;;;;5.37;4.70;;;16.70;99.90;;;;;;5071835;28;20531;-83
2023/09/15 03:44:25;;;;;;;4.93;4.47;;;16.70;99.90;;;;;;5057662;28;20467;-88
2023/09/15 03:46:52;;;;;;;5.43;4.47;;;16.60;99.90;;;;;;5074618;28;20485;-88
2023/09/15 03:49:19;;;;;;;8.67;4.93;;;16.60;99.90;;;;;;5075849;28;20462;-88
2023/09/15 03:51:47;;;;;;;6.53;4.50;;;16.70;99.90;;;;;;5074935;28;20477;-87
2023/09/15 03:54:13;;;;;;;6.30;4.83;;;16.60;99.90;;;;;;5075666;28;20815;-87
2023/09/15 03:56:42;;;;;;;4.90;4.30;;;16.60;99.90;;;;;;5074713;28;20490;-84
2023/09/15 03:59:09;;;;;;;6.13;3.87;;;16.60;99.90;;;;;;5072687;28;20527;-83
2023/09/15 04:01:38;;;;;;;4.80;4.40;;;16.60;99.90;;;;;;5072245;28;20462;-82
2023/09/15 04:04:06;;;;;;;5.50;4.90;;;16.60;99.90;;;;;;5072767;28;20581;-82
2023/09/15 04:06:35;;;;;;;3.77;3.47;;;16.70;99.90;;;;;;5072142;28;20528;-82
2023/09/15 04:09:09;;;;;;;4.93;4.43;;;16.70;99.90;;;;;;5076713;28;20833;-83
2023/09/15 04:11:36;;;;;;;5.23;4.70;;;16.60;99.90;;;;;;5075989;28;20470;-81
2023/09/15 04:14:04;;;;;;;6.23;4.20;;;16.60;99.90;;;;;;5076754;28;20523;-82
2023/09/15 04:16:32;;;;;;;5.33;4.80;;;16.60;99.90;;;;;;5076564;28;20565;-82
2023/09/15 04:19:00;;;;;;;5.97;5.47;;;16.60;99.90;;;;;;5091486;28;20462;-88
2023/09/15 04:21:27;;;;;;;6.50;4.73;;;16.60;99.90;;;;;;5090781;28;20474;-88
2023/09/15 04:23:57;;;;;;;6.73;5.00;;;16.60;99.90;;;;;;5092452;28;20450;-87
2023/09/15 04:26:24;;;;;;;5.23;4.73;;;16.60;99.90;;;;;;5096479;28;20486;-87
2023/09/15 04:28:51;;;;;;;5.87;4.70;;;16.60;99.90;;;;;;5084981;28;20496;-82
2023/09/15 04:31:18;;;;;;;6.43;5.00;;;16.60;99.90;;;;;;5068463;28;20486;-82
2023/09/15 04:33:48;;;;;;;6.23;5.27;;;16.60;99.90;;;;;;5080277;28;20952;-82
2023/09/15 04:36:18;;;;;;;5.77;5.07;;;16.60;99.90;;;;;;5080990;28;20542;-83
2023/09/15 04:38:45;;;;;;;9.60;5.10;;;16.60;99.90;;;;;;5082217;28;20466;-82
2023/09/15 04:41:12;;;;;;;5.37;4.87;;;16.60;99.90;;;;;;5078508;28;20466;-82
2023/09/15 04:43:39;;;;;;;4.43;4.03;;;16.60;99.90;;;;;;5080007;28;20484;-86
2023/09/15 04:46:06;;;;;;;6.10;5.10;;;16.50;99.90;;;;;;5076127;28;20528;-82
2023/09/15 04:48:33;;;;;;;6.33;4.80;;;16.50;99.90;;;;;;5076802;28;20469;-86
2023/09/15 04:51:00;;;;;;;9.60;7.73;;;16.50;99.90;;;;;;5075463;28;20493;-85
2023/09/15 04:53:28;;;;;;;9.07;6.17;;;16.50;99.90;;;;;;5076232;28;20458;-82
2023/09/15 04:55:55;;;;;;;6.60;5.80;;;16.50;99.90;;;;;;5074470;28;21037;-86
2023/09/15 04:58:22;;;;;;;5.87;5.30;;;16.50;99.90;;;;;;5076154;28;20474;-85
2023/09/15 05:00:49;;;;;;;8.63;6.27;;;16.50;99.90;;;;;;5076473;28;20490;-83
2023/09/15 05:03:19;;;;;;;6.70;5.93;;;16.50;99.90;;;;;;5075980;28;21035;-81
2023/09/15 05:05:50;;;;;;;6.17;5.57;;;16.50;99.90;;;;;;5077166;28;20875;-86
2023/09/15 05:08:18;;;;;;;8.90;7.10;;;16.50;99.90;;;;;;5076367;28;20486;-86
2023/09/15 05:10:48;;;;;;;5.80;5.20;;;16.50;99.90;;;;;;5068932;28;20485;-82
2023/09/15 05:13:15;;;;;;;10.10;6.83;;;16.50;99.90;;;;;;5076056;28;20496;-82
2023/09/15 05:15:42;;;;;;;8.53;6.40;;;16.40;99.90;;;;;;5075847;28;20494;-86
2023/09/15 05:18:12;;;;;;;7.13;6.40;;;16.40;99.90;;;;;;5076442;28;20468;-86
2023/09/15 05:20:42;;;;;;;9.30;6.97;;;16.40;99.90;;;;;;5057654;28;20475;-84
2023/09/15 05:23:11;;;;;;;7.50;6.30;;;16.40;99.90;;;;;;5074562;28;20956;-82
2023/09/15 05:25:49;;;;;;;6.77;5.30;;;16.40;99.90;;;;;;5074354;28;20561;-82
2023/09/15 05:28:17;;;;;;;5.67;4.77;;;16.50;99.90;;;;;;5075173;28;20892;-82
2023/09/15 05:30:56;;;;;;;6.47;5.20;;;16.50;99.90;;;;;;5074841;28;20757;-82
2023/09/15 05:33:23;;;;;;;10.80;6.30;;;16.50;99.90;;;;;;5067979;28;20470;-83
2023/09/15 05:35:50;;;;;;;6.20;5.37;;;16.50;99.90;;;;;;5075041;28;20505;-82
2023/09/15 05:38:17;;;;;;;8.90;6.23;;;16.50;99.90;;;;;;5075367;28;20467;-82
2023/09/15 05:40:44;;;;;;;6.83;6.10;;;16.50;99.90;;;;;;5074704;28;20494;-82
2023/09/15 05:43:11;;;;;;;7.10;6.20;;;16.50;99.90;;;;;;5075326;28;20502;-82
2023/09/15 05:45:41;;;;;;;7.00;5.27;;;16.50;99.90;;;;;;5064684;28;20502;-82
2023/09/15 05:48:12;;;;;;;8.53;5.50;;;16.50;99.90;;;;;;5071230;28;21040;-81
2023/09/15 05:50:39;;;;;;;7.30;6.23;;;16.50;99.90;;;;;;5074710;28;20473;-83
2023/09/15 05:53:06;;;;;;;7.17;5.50;;;16.60;99.90;;;;;;5075214;28;20809;-82
2023/09/15 05:55:33;;;;;;;6.13;4.93;;;16.60;99.90;;;;;;5074482;28;21004;-82
2023/09/15 05:58:00;;;;;;;8.83;5.80;;;16.60;99.90;;;;;;5075241;28;20469;-82
2023/09/15 06:00:31;;;;;;;6.37;5.77;;;16.60;99.90;;;;;;5075238;28;20504;-83
2023/09/15 06:03:00;;;;;;;7.30;5.63;;;16.70;99.90;;;;;;5074673;28;20524;-82
2023/09/15 06:05:27;;;;;;;6.27;5.20;;;16.80;99.90;;;;;;5075529;28;20502;-86
2023/09/15 06:07:55;;;;;;;8.27;5.17;;;16.80;99.90;;;;;;5067097;28;20485;-86
2023/09/15 06:10:24;;;;;;;7.70;4.83;;;16.90;99.90;;;;;;5064965;28;20470;-82
2023/09/15 06:12:52;;;;;;;7.10;5.00;;;16.90;99.90;;;;;;5074697;28;20948;-83
2023/09/15 06:15:21;;;;;;;6.00;5.40;;;16.90;99.90;;;;;;5076339;28;20527;-86
2023/09/15 06:17:48;;;;;;;6.97;5.60;;;17.00;99.90;;;;;;5077031;28;20531;-85
2023/09/15 06:20:16;;;;;;;11.77;8.00;;;17.10;99.90;;;;;;5077521;28;20968;-86
2023/09/15 06:22:43;;;;;;;7.67;6.53;;;17.10;99.90;;;;;;5077001;28;20467;-83
2023/09/15 06:25:10;;;;;;;5.80;4.47;;;17.10;99.90;;;;;;5084933;28;20458;-82
2023/09/15 06:27:37;;;;;;;5.30;4.70;;;17.20;99.90;;;;;;5077506;28;20470;-82
2023/09/15 06:30:05;;;;;;;8.77;5.30;;;17.20;99.90;;;;;;5078402;28;20467;-82
2023/09/15 06:32:32;;;;;;;5.23;4.63;;;17.20;99.90;;;;;;5079114;28;20466;-82
2023/09/15 06:34:59;;;;;;;5.50;4.50;;;17.30;99.90;;;;;;5077785;28;20499;-83
2023/09/15 06:37:27;;;;;;;4.87;4.33;;;17.40;99.90;;;;;;5086033;28;20466;-82
2023/09/15 06:39:54;;;;;;;4.93;4.43;;;17.40;99.90;;;;;;5078639;28;20475;-83
2023/09/15 06:42:21;;;;;;;5.10;4.50;;;17.50;99.90;;;;;;5077056;28;20475;-82
2023/09/15 06:44:48;;;;;;;6.47;4.60;;;17.50;99.90;;;;;;5076905;28;20466;-83
2023/09/15 06:47:15;;;;;;;5.40;4.90;;;17.50;99.90;;;;;;5076614;28;20474;-83
2023/09/15 06:49:42;;;;;;;5.30;4.63;;;17.60;99.90;;;;;;5086195;28;20490;-84
2023/09/15 06:52:12;;;;;;;5.50;4.90;;;17.70;99.90;;;;;;5081492;28;20516;-83
2023/09/15 06:54:40;;;;;;;5.37;4.13;;;17.70;99.90;;;;;;5079088;28;20962;-83
2023/09/15 06:57:07;;;;;;;5.50;5.00;;;17.80;99.90;;;;;;5084990;28;20466;-86
2023/09/15 06:59:34;;;;;;;6.20;4.13;;;17.80;99.90;;;;;;5092433;28;20485;-86
2023/09/15 07:02:02;;;;;;;7.57;4.93;;;17.80;99.90;;;;;;5091457;28;20486;-86
2023/09/15 07:04:29;;;;;;;5.10;4.60;;;18.00;99.90;;;;;;5089392;28;20493;-86
2023/09/15 07:06:57;;;;;;;6.93;4.70;;;18.00;99.90;;;;;;5089442;28;20493;-86
2023/09/15 07:09:24;;;;;;;7.27;5.50;;;18.10;99.90;;;;;;5090714;28;20474;-86
2023/09/15 07:11:52;;;;;;;7.43;4.47;;;18.10;99.90;;;;;;5089905;28;20477;-86
2023/09/15 07:14:19;;;;;;;4.83;4.37;;;18.20;99.90;;;;;;5090415;28;20497;-86
2023/09/15 07:16:47;;;;;;;4.43;3.57;;;18.20;99.90;;;;;;5090157;28;20489;-85
2023/09/15 07:19:16;;;;;;;6.60;4.23;;;18.30;99.90;;;;;;5085062;28;20990;-86
2023/09/15 07:21:44;;;;;;;5.67;5.10;;;18.30;99.90;;;;;;5084194;28;20621;-86
2023/09/15 07:24:41;;;;;;;6.57;4.77;;;18.40;99.90;;;;;;5081612;28;20526;-86
2023/09/15 07:27:18;;;;;;;7.90;4.30;;;18.40;99.90;;;;;;5079349;28;20466;-83
2023/09/15 07:29:45;;;;;;;6.80;4.87;;;18.60;99.90;;;;;;5080561;28;20551;-86
2023/09/15 07:32:12;;;;;;;7.10;4.90;;;18.60;99.90;;;;;;5079053;28;20838;-85
2023/09/15 07:34:39;;;;;;;5.93;5.33;;;18.70;99.90;;;;;;5075343;28;20500;-82
2023/09/15 07:37:06;;;;;;;5.90;3.97;;;18.70;99.90;;;;;;5074364;28;20524;-86
2023/09/15 07:39:40;;;;;;;4.57;4.17;;;18.70;99.90;;;;;;5074738;28;20497;-86
2023/09/15 07:42:08;;;;;;;5.90;4.67;;;18.80;99.90;;;;;;5074067;28;20543;-82
2023/09/15 07:44:37;;;;;;;7.40;5.07;;;18.80;99.90;;;;;;5062263;28;20570;-83
2023/09/15 07:47:06;;;;;;;4.47;4.07;;;18.90;99.90;;;;;;5063512;28;20985;-83
2023/09/15 07:49:35;;;;;;;4.10;3.80;;;18.90;99.90;;;;;;5073461;28;20524;-82
2023/09/15 07:52:03;;;;;;;5.10;3.83;;;19.00;99.90;;;;;;5072970;28;20470;-82
2023/09/15 07:54:31;;;;;;;5.20;4.70;;;19.00;99.90;;;;;;5073308;28;20547;-82
2023/09/15 07:56:59;;;;;;;4.93;3.87;;;19.10;99.90;;;;;;5072662;28;20477;-83
2023/09/15 07:59:28;;;;;;;3.97;3.67;;;19.20;99.90;;;;;;5064208;28;20856;-82
2023/09/15 08:01:56;;;;;;;4.43;4.03;;;19.20;99.90;;;;;;5073546;28;20800;-85
2023/09/15 08:04:23;;;;;;;5.37;4.43;;;19.30;99.90;;;;;;5073541;28;20840;-82
2023/09/15 08:06:54;;;;;;;5.30;4.50;;;19.30;99.90;;;;;;5074030;28;20490;-82
2023/09/15 08:09:21;;;;;;;5.93;4.60;;;19.30;99.90;;;;;;5073914;28;20533;-81
2023/09/15 08:12:04;;;;;;;7.73;3.73;;;19.30;99.90;;;;;;5066174;28;20975;-85
2023/09/15 08:14:40;;;;;;;6.53;4.13;;;19.40;99.90;;;;;;5073185;28;20470;-87
2023/09/15 08:17:08;;;;;;;4.90;4.30;;;19.40;99.90;;;;;;5073054;28;20544;-84
2023/09/15 08:19:37;;;;;;;3.77;3.47;;;19.50;99.90;;;;;;5072773;28;20958;-83
2023/09/15 08:22:05;;;;;;;4.57;4.10;;;19.50;99.90;;;;;;5073270;28;20462;-86
2023/09/15 08:24:35;;;;;;;6.67;4.50;;;19.60;99.90;;;;;;5072213;28;20470;-87
2023/09/15 08:27:03;;;;;;;4.37;3.97;;;19.60;99.90;;;;;;5061238;28;20504;-82
2023/09/15 08:29:32;;;;;;;4.20;3.90;;;19.70;99.90;;;;;;5056173;28;20497;-86
2023/09/15 08:32:00;;;;;;;7.03;4.13;;;19.80;99.90;;;;;;5068296;28;20948;-86
2023/09/15 08:34:32;;;;;;;8.17;4.80;;;19.80;99.90;;;;;;5062074;28;20486;-85
2023/09/15 08:37:06;;;;;;;4.50;3.80;;;19.80;99.90;;;;;;5069379;28;20819;-86
2023/09/15 08:39:33;;;;;;;5.33;3.90;;;19.90;99.90;;;;;;5073275;28;20466;-82
2023/09/15 08:42:10;;;;;;;4.40;3.83;;;19.90;99.90;;;;;;5073791;28;20492;-83
2023/09/15 08:44:47;;;;;;;7.63;4.40;;;19.90;99.90;;;;;;5082757;28;20493;-85
2023/09/15 08:47:19;;;;;;;5.30;4.10;;;20.00;99.90;;;;;;5088578;28;20458;-86
2023/09/15 08:49:47;;;;;;;3.80;3.40;;;20.10;99.90;;;;;;5057144;28;20500;-85
2023/09/15 08:52:18;;;;;;;5.20;3.40;;;20.20;99.90;;;;;;5072313;28;20972;-85
2023/09/15 08:54:53;;;;;;;4.10;3.70;;;20.20;99.90;;;;;;5070261;28;20481;-82
2023/09/15 08:57:21;;;;;;;4.30;4.00;;;20.20;99.90;;;;;;5075410;28;20473;-85
2023/09/15 08:59:50;;;;;;;4.60;3.70;;;20.30;99.90;;;;;;5077534;28;20798;-82
2023/09/15 09:02:17;;;;;;;4.53;3.80;;;20.40;99.90;;;;;;5077818;28;20470;-85
2023/09/15 09:04:49;;;;;;;5.13;4.23;;;20.40;99.90;;;;;;5078426;28;20466;-85
2023/09/15 09:07:33;;;;;;;4.20;3.67;;;20.50;99.90;;;;;;5070258;28;20470;-85
2023/09/15 09:10:00;;;;;;;6.17;3.30;;;20.60;99.90;;;;;;5076890;28;20533;-83
2023/09/15 09:12:27;;;;;;;3.50;3.20;;;20.70;99.90;;;;;;5076624;28;20462;-82
2023/09/15 09:14:56;;;;;;;6.63;4.37;;;20.70;99.90;;;;;;5076083;28;20466;-83
2023/09/15 09:17:24;;;;;;;4.00;3.27;;;20.70;99.90;;;;;;5075614;28;20464;-83
2023/09/15 09:19:56;;;;;;;4.57;3.30;;;20.70;99.90;;;;;;5076788;28;20466;-87
2023/09/15 09:22:23;;;;;;;3.27;2.83;;;20.70;99.90;;;;;;5075178;28;20947;-86
2023/09/15 09:24:56;;;;;;;4.13;3.80;;;20.80;99.90;;;;;;5075628;28;20471;-84
2023/09/15 09:27:23;;;;;;;3.80;3.00;;;20.90;99.90;;;;;;5074837;28;20524;-83
2023/09/15 09:29:50;;;;;;;3.93;3.60;;;20.90;99.90;;;;;;5075197;28;20474;-83
2023/09/15 09:32:17;;;;;;;4.70;3.43;;;21.10;99.90;;;;;;5066813;28;20470;-83
2023/09/15 09:34:44;;;;;;;3.83;3.53;;;21.10;99.90;;;;;;5074855;28;20470;-83
2023/09/15 09:37:12;;;;;;;5.23;3.23;;;21.10;99.90;;;;;;5073956;28;20475;-84
2023/09/15 09:39:39;;;;;;;7.40;2.70;;;21.20;99.90;;;;;;5065442;28;20539;-86
2023/09/15 09:42:07;;;;;;;3.83;3.40;;;21.20;99.90;;;;;;5067845;28;20471;-86
2023/09/15 09:44:36;;;;;;;2.90;2.50;;;21.20;99.90;;;;;;5074744;28;20477;-86
2023/09/15 09:47:07;;;;;;;4.57;3.00;;;21.30;99.90;;;;;;5075548;28;20466;-86
2023/09/15 09:49:41;;;;;;;7.20;3.00;;;21.30;99.90;;;;;;5075128;28;20492;-86
2023/09/15 09:52:08;;;;;;;4.30;3.20;;;21.30;99.90;;;;;;5071852;28;20512;-85
2023/09/15 09:54:41;;;;;;;2.43;2.17;;;21.30;99.90;;;;;;5068213;28;20927;-86
2023/09/15 09:57:09;;;;;;;6.40;3.00;;;21.40;99.90;;;;;;5074069;28;20474;-85
2023/09/15 09:59:37;;;;;;;6.20;4.27;;;21.40;99.90;;;;;;5074715;28;20474;-85
2023/09/15 10:02:05;;;;;;;3.03;2.83;;;21.50;99.90;;;;;;5074439;28;20486;-86
2023/09/15 10:04:33;;;;;;;6.07;3.03;;;21.60;99.90;;;;;;5073562;28;20477;-85
2023/09/15 10:07:04;;;;;;;3.77;2.73;;;21.70;99.90;;;;;;5074729;28;20488;-84
2023/09/15 10:09:39;;;;;;;3.00;2.30;;;21.80;99.90;;;;;;5073020;28;20466;-86
2023/09/15 10:12:09;;;;;;;2.90;2.30;;;21.90;99.90;;;;;;5073913;28;20507;-85
2023/09/15 10:14:37;;;;;;;4.00;2.73;;;21.90;99.90;;;;;;5073885;28;20470;-86
2023/09/15 10:17:06;;;;;;;3.70;3.10;;;22.00;99.90;;;;;;5073772;28;20459;-86
2023/09/15 10:19:42;;;;;;;3.20;2.33;;;22.00;99.90;;;;;;5072109;28;20952;-86
2023/09/15 10:22:10;;;;;;;2.53;2.33;;;22.00;99.90;;;;;;5074332;28;20500;-86
2023/09/15 10:24:44;;;;;;;3.40;3.10;;;22.00;99.90;;;;;;5073661;28;20920;-86
2023/09/15 10:27:11;;;;;;;3.20;2.70;;;22.10;99.90;;;;;;5065213;28;20508;-86
2023/09/15 10:29:42;;;;;;;3.73;3.10;;;22.10;99.90;;;;;;5073737;28;20512;-85
2023/09/15 10:32:10;;;;;;;2.90;2.60;;;22.10;99.90;;;;;;5073873;28;20473;-86
2023/09/15 10:34:38;;;;;;;4.07;3.67;;;22.20;99.90;;;;;;5048417;28;20507;-86
2023/09/15 10:37:09;;;;;;;3.30;3.00;;;22.20;99.90;;;;;;5053323;28;20593;-86
2023/09/15 10:39:38;;;;;;;5.00;4.60;;;22.20;99.90;;;;;;5050063;28;20467;-86
2023/09/15 10:42:10;;;;;;;2.90;2.63;;;22.30;99.90;;;;;;5052676;28;20455;-86
2023/09/15 10:44:40;;;;;;;2.60;2.27;;;22.30;99.90;;;;;;5053675;28;20561;-86
2023/09/15 10:47:22;;;;;;;4.27;3.00;;;22.30;99.90;;;;;;5047064;28;20528;-85
2023/09/15 10:49:52;;;;;;;4.23;3.40;;;22.30;99.90;;;;;;5051184;28;20512;-86
2023/09/15 10:52:19;;;;;;;4.53;3.37;;;22.40;99.90;;;;;;5047262;28;20481;-87
2023/09/15 10:54:50;;;;;;;3.60;3.07;;;22.40;99.90;;;;;;5046351;28;20479;-83
2023/09/15 10:57:22;;;;;;;3.60;3.30;;;22.40;99.90;;;;;;5052994;28;20484;-83
2023/09/15 10:59:50;;;;;;;4.90;3.07;;;22.40;99.90;;;;;;5053610;28;20463;-86
2023/09/15 11:02:20;;;;;;;4.33;3.17;;;22.50;99.90;;;;;;5053188;28;20837;-85
2023/09/15 11:04:48;;;;;;;3.50;2.90;;;22.50;99.90;;;;;;5053647;28;20490;-87
2023/09/15 11:07:17;;;;;;;3.70;3.30;;;22.50;99.90;;;;;;5052933;28;20546;-86
2023/09/15 11:09:44;;;;;;;3.40;3.10;;;22.60;99.90;;;;;;5054107;28;20504;-86
2023/09/15 11:12:16;;;;;;;3.70;3.20;;;22.60;99.90;;;;;;5052792;28;20501;-86
2023/09/15 11:14:45;;;;;;;5.10;4.07;;;22.50;99.90;;;;;;5052359;28;20475;-86
2023/09/15 11:17:18;;;;;;;3.93;3.57;;;22.60;99.90;;;;;;5043093;28;20901;-86
2023/09/15 11:19:45;;;;;;;5.57;3.17;;;22.70;99.90;;;;;;5046463;28;20475;-86
2023/09/15 11:22:12;;;;;;;3.43;3.13;;;22.70;99.90;;;;;;5053428;28;21051;-86
2023/09/15 11:24:45;;;;;;;4.80;3.27;;;22.60;99.90;;;;;;5041498;28;20962;-86
2023/09/15 11:27:33;;;;;;;4.43;3.00;;;22.60;99.90;;;;;;5047667;28;20455;-86
2023/09/15 11:30:15;;;;;;;3.30;3.00;;;22.60;99.90;;;;;;5049923;28;20467;-85
2023/09/15 11:33:11;;;;;;;3.37;3.10;;;22.60;99.90;;;;;;5058657;28;20459;-85
2023/09/15 11:35:49;;;;;;;3.20;2.90;;;22.60;99.90;;;;;;5026288;28;20484;-85
2023/09/15 11:38:53;;;;;;;4.27;3.73;;;22.70;99.90;;;;;;5037404;28;20848;-86
2023/09/15 11:44:24;;;;;;;3.20;2.77;;;22.70;99.90;;;;;;5037845;28;20459;-86
2023/09/15 11:47:00;;;;;;;3.67;3.37;;;22.80;99.90;;;;;;5045819;28;20479;-86
2023/09/15 11:49:29;;;;;;;5.10;3.50;;;22.80;99.90;;;;;;5035722;28;20620;-86
2023/09/15 11:52:04;;;;;;;5.00;3.30;;;22.80;99.90;;;;;;5055163;28;20467;-86
2023/09/15 11:54:34;;;;;;;3.27;3.07;;;22.90;99.90;;;;;;5055568;28;20816;-85
2023/09/15 11:57:07;;;;;;;3.43;3.13;;;22.90;99.90;;;;;;5044257;28;20533;-86
2023/09/15 11:59:40;;;;;;;4.70;2.60;;;22.90;99.90;;;;;;5032021;28;20483;-86
2023/09/15 12:02:07;;;;;;;4.10;3.70;;;22.90;99.90;;;;;;5049170;28;21091;-86
2023/09/15 12:04:35;;;;;;;3.00;2.80;;;22.90;99.90;;;;;;5053726;28;20479;-86
2023/09/15 12:07:04;;;;;;;3.87;3.00;;;22.90;99.90;;;;;;5058498;28;20961;-85
2023/09/15 12:09:31;;;;;;;3.30;3.00;;;22.90;99.90;;;;;;5058731;28;20474;-86
2023/09/15 12:11:59;;;;;;;4.13;2.87;;;23.00;99.90;;;;;;5056641;28;20494;-86
2023/09/15 12:14:26;;;;;;;3.10;2.90;;;23.00;99.90;;;;;;5052590;28;20514;-85
2023/09/15 12:16:57;;;;;;;2.93;2.00;;;23.10;99.90;;;;;;5053649;28;20459;-85
2023/09/15 12:19:28;;;;;;;4.53;3.47;;;23.10;99.90;;;;;;5046019;28;20969;-85
2023/09/15 12:21:55;;;;;;;3.47;2.57;;;23.20;99.40;;;;;;5052364;28;20506;-86
2023/09/15 12:24:25;;;;;;;3.50;2.60;;;23.30;98.90;;;;;;5053008;28;20467;-86
2023/09/15 12:26:54;;;;;;;2.63;2.43;;;23.30;99.00;;;;;;5052853;28;20471;-86
2023/09/15 12:29:22;;;;;;;3.03;2.73;;;23.30;98.70;;;;;;5054602;28;20475;-86
2023/09/15 12:31:56;;;;;;;3.50;2.67;;;23.20;98.30;;;;;;5054363;28;20466;-85
2023/09/15 12:34:24;;;;;;;2.83;2.60;;;23.30;98.50;;;;;;5049822;28;20467;-86
2023/09/15 12:36:53;;;;;;;3.20;2.90;;;23.20;98.40;;;;;;5056202;28;20529;-85
2023/09/15 12:39:20;;;;;;;3.63;3.03;;;23.20;98.30;;;;;;5058413;28;20495;-87
2023/09/15 12:41:58;;;;;;;3.37;3.07;;;23.20;98.50;;;;;;5057810;28;20979;-86
2023/09/15 12:44:32;;;;;;;3.80;3.30;;;23.20;98.60;;;;;;5058162;28;20544;-85
2023/09/15 12:47:03;;;;;;;3.43;2.50;;;23.20;98.90;;;;;;5047844;28;20466;-86
2023/09/15 12:49:30;;;;;;;5.63;2.97;;;23.30;98.10;;;;;;5058052;28;20478;-86
2023/09/15 12:51:59;;;;;;;6.03;2.80;;;23.30;98.20;;;;;;5049854;28;20466;-86
2023/09/15 12:54:27;;;;;;;3.37;2.70;;;23.20;98.20;;;;;;5060347;28;20526;-85
2023/09/15 12:56:56;;;;;;;3.33;2.90;;;23.30;98.40;;;;;;5066322;28;20494;-87
2023/09/15 12:59:26;;;;;;;3.60;3.17;;;23.30;98.50;;;;;;5071446;28;20582;-85
2023/09/15 13:01:54;;;;;;;3.40;3.20;;;23.20;98.50;;;;;;5070703;28;20501;-87